Map

Track Data

SID SEASON NUMBER BASIN SUBBASIN NAME ISO_TIME NATURE LAT LON WMO_WIND WMO_PRES WMO_AGENCY TRACK_TYPE DIST2LAND LANDFALL IFLAG USA_AGENCY USA_ATCF_ID USA_LAT USA_LON USA_RECORD USA_STATUS USA_WIND USA_PRES USA_SSHS USA_R34_NE USA_R34_SE USA_R34_SW USA_R34_NW USA_R50_NE USA_R50_SE USA_R50_SW USA_R50_NW USA_R64_NE USA_R64_SE USA_R64_SW USA_R64_NW USA_POCI USA_ROCI USA_RMW USA_EYE TOKYO_LAT TOKYO_LON TOKYO_GRADE TOKYO_WIND TOKYO_PRES TOKYO_R50_DIR TOKYO_R50_LONG TOKYO_R50_SHORT TOKYO_R30_DIR TOKYO_R30_LONG TOKYO_R30_SHORT TOKYO_LAND CMA_LAT CMA_LON CMA_CAT CMA_WIND CMA_PRES HKO_LAT HKO_LON HKO_CAT HKO_WIND HKO_PRES NEWDELHI_LAT NEWDELHI_LON NEWDELHI_GRADE NEWDELHI_WIND NEWDELHI_PRES NEWDELHI_CI NEWDELHI_DP NEWDELHI_POCI REUNION_LAT REUNION_LON REUNION_TYPE REUNION_WIND REUNION_PRES REUNION_TNUM REUNION_CI REUNION_RMW REUNION_R34_NE REUNION_R34_SE REUNION_R34_SW REUNION_R34_NW REUNION_R50_NE REUNION_R50_SE REUNION_R50_SW REUNION_R50_NW REUNION_R64_NE REUNION_R64_SE REUNION_R64_SW REUNION_R64_NW BOM_LAT BOM_LON BOM_TYPE BOM_WIND BOM_PRES BOM_TNUM BOM_CI BOM_RMW BOM_R34_NE BOM_R34_SE BOM_R34_SW BOM_R34_NW BOM_R50_NE BOM_R50_SE BOM_R50_SW BOM_R50_NW BOM_R64_NE BOM_R64_SE BOM_R64_SW BOM_R64_NW BOM_ROCI BOM_POCI BOM_EYE BOM_POS_METHOD BOM_PRES_METHOD NADI_LAT NADI_LON NADI_CAT NADI_WIND NADI_PRES WELLINGTON_LAT WELLINGTON_LON WELLINGTON_WIND WELLINGTON_PRES DS824_LAT DS824_LON DS824_STAGE DS824_WIND DS824_PRES TD9636_LAT TD9636_LON TD9636_STAGE TD9636_WIND TD9636_PRES TD9635_LAT TD9635_LON TD9635_WIND TD9635_PRES TD9635_ROCI NEUMANN_LAT NEUMANN_LON NEUMANN_CLASS NEUMANN_WIND NEUMANN_PRES MLC_LAT MLC_LON MLC_CLASS MLC_WIND MLC_PRES USA_GUST BOM_GUST BOM_GUST_PER REUNION_GUST REUNION_GUST_PER USA_SEAHGT USA_SEARAD_NE USA_SEARAD_SE USA_SEARAD_SW USA_SEARAD_NW STORM_SPEED STORM_DIR
1901278N12309 1901 35 NA NA NOT_NAMED 1901-10-05 00:00:00 TS 12.0000 -51.5000 35 hurdat_atl main 744 744 O_____________ hurdat_atl AL111901 12.0000 -51.5000 TS 35 0 2 314
1901278N12309 1901 35 NA NA NOT_NAMED 1901-10-05 03:00:00 TS 12.0875 -51.5900 main 750 750 P_____________ AL111901 12.0875 -51.5900 TS 35 0 3 316
1901278N12309 1901 35 NA NA NOT_NAMED 1901-10-05 06:00:00 TS 12.2000 -51.7000 35 hurdat_atl main 757 757 O_____________ hurdat_atl AL111901 12.2000 -51.7000 TS 35 0 4 317
1901278N12309 1901 35 NA NA NOT_NAMED 1901-10-05 09:00:00 TS 12.3500 -51.8425 main 774 770 P_____________ AL111901 12.3500 -51.8425 TS 35 0 4 316
1901278N12309 1901 35 NA NA NOT_NAMED 1901-10-05 12:00:00 TS 12.5000 -52.0000 35 hurdat_atl main 777 774 O_____________ hurdat_atl AL111901 12.5000 -52.0000 TS 35 0 4 310
1901278N12309 1901 35 NA NA NOT_NAMED 1901-10-05 15:00:00 TS 12.6000 -52.1500 main 781 781 P_____________ AL111901 12.6000 -52.1500 TS 35 0 4 304
1901278N12309 1901 35 NA NA NOT_NAMED 1901-10-05 18:00:00 TS 12.7000 -52.3000 35 hurdat_atl main 789 789 O_____________ hurdat_atl AL111901 12.7000 -52.3000 TS 35 0 4 310
1901278N12309 1901 35 NA NA NOT_NAMED 1901-10-05 21:00:00 TS 12.8500 -52.4500 main 797 797 P_____________ AL111901 12.8500 -52.4500 TS 37 0 4 316
1901278N12309 1901 35 NA NA NOT_NAMED 1901-10-06 00:00:00 TS 13.0000 -52.6000 40 hurdat_atl main 814 812 O_____________ hurdat_atl AL111901 13.0000 -52.6000 TS 40 0 4 311
1901278N12309 1901 35 NA NA NOT_NAMED 1901-10-06 03:00:00 TS 13.1000 -52.7425 main 823 820 P_____________ AL111901 13.1000 -52.7425 TS 40 0 4 304
1901278N12309 1901 35 NA NA NOT_NAMED 1901-10-06 06:00:00 TS 13.2000 -52.9000 40 hurdat_atl main 830 828 O_____________ hurdat_atl AL111901 13.2000 -52.9000 TS 40 0 4 305
1901278N12309 1901 35 NA NA NOT_NAMED 1901-10-06 09:00:00 TS 13.3425 -53.0925 main 837 837 P_____________ AL111901 13.3425 -53.0925 TS 40 0 5 308
1901278N12309 1901 35 NA NA NOT_NAMED 1901-10-06 12:00:00 TS 13.5000 -53.3000 40 hurdat_atl main 856 855 O_____________ hurdat_atl AL111901 13.5000 -53.3000 TS 40 0 5 307
1901278N12309 1901 35 NA NA NOT_NAMED 1901-10-06 15:00:00 TS 13.6425 -53.5000 main 865 865 P_____________ AL111901 13.6425 -53.5000 TS 42 0 5 308
1901278N12309 1901 35 NA NA NOT_NAMED 1901-10-06 18:00:00 TS 13.8000 -53.7000 45 hurdat_atl main 866 850 O_____________ hurdat_atl AL111901 13.8000 -53.7000 TS 45 0 5 312
1901278N12309 1901 35 NA NA NOT_NAMED 1901-10-06 21:00:00 TS 13.9925 -53.9000 main 855 845 P_____________ AL111901 13.9925 -53.9000 TS 47 0 6 316
1901278N12309 1901 35 NA NA NOT_NAMED 1901-10-07 00:00:00 TS 14.2000 -54.1000 50 hurdat_atl main 845 837 O_____________ hurdat_atl AL111901 14.2000 -54.1000 TS 50 0 6 317
1901278N12309 1901 35 NA NA NOT_NAMED 1901-10-07 03:00:00 TS 14.4000 -54.2926 main 837 829 P_____________ AL111901 14.4000 -54.2926 TS 52 0 6 316
1901278N12309 1901 35 NA NA NOT_NAMED 1901-10-07 06:00:00 TS 14.6000 -54.5000 55 hurdat_atl main 829 817 O_____________ hurdat_atl AL111901 14.6000 -54.5000 TS 55 0 6 313
1901278N12309 1901 35 NA NA NOT_NAMED 1901-10-07 09:00:00 TS 14.7925 -54.7351 main 823 809 P_____________ AL111901 14.7925 -54.7351 TS 57 0 6 310
1901278N12309 1901 35 NA NA NOT_NAMED 1901-10-07 12:00:00 TS 15.0000 -55.0000 60 hurdat_atl main 809 798 O_____________ hurdat_atl AL111901 15.0000 -55.0000 TS 60 0 7 311
1901278N12309 1901 35 NA NA NOT_NAMED 1901-10-07 15:00:00 TS 15.2273 -55.2553 main 797 794 P_____________ AL111901 15.2273 -55.2553 TS 60 0 8 311
1901278N12309 1901 35 NA NA NOT_NAMED 1901-10-07 18:00:00 TS 15.5000 -55.6000 60 hurdat_atl main 794 778 O_____________ hurdat_atl AL111901 15.5000 -55.6000 TS 60 0 10 306
1901278N12309 1901 35 NA NA NOT_NAMED 1901-10-07 21:00:00 TS 15.8352 -56.1273 main 779 767 P_____________ AL111901 15.8352 -56.1273 TS 60 0 13 303
1901278N12309 1901 35 NA NA NOT_NAMED 1901-10-08 00:00:00 TS 16.2000 -56.7000 60 hurdat_atl main 771 765 O_____________ hurdat_atl AL111901 16.2000 -56.7000 TS 60 0 12 306
1901278N12309 1901 35 NA NA NOT_NAMED 1901-10-08 03:00:00 TS 16.5573 -57.1652 main 777 772 P_____________ AL111901 16.5573 -57.1652 TS 60 0 11 309
1901278N12309 1901 35 NA NA NOT_NAMED 1901-10-08 06:00:00 TS 16.9000 -57.6000 60 hurdat_atl main 785 780 O_____________ hurdat_atl AL111901 16.9000 -57.6000 TS 60 0 10 307
1901278N12309 1901 35 NA NA NOT_NAMED 1901-10-08 09:00:00 TS 17.1848 -58.0355 main 796 755 P_____________ AL111901 17.1848 -58.0355 TS 57 0 11 305
1901278N12309 1901 35 NA NA NOT_NAMED 1901-10-08 12:00:00 TS 17.5000 -58.5000 55 hurdat_atl main 755 698 O_____________ hurdat_atl AL111901 17.5000 -58.5000 TS 55 0 12 307
1901278N12309 1901 35 NA NA NOT_NAMED 1901-10-08 15:00:00 TS 17.9200 -59.0425 main 698 633 P_____________ AL111901 17.9200 -59.0425 TS 52 0 14 311
1901278N12309 1901 35 NA NA NOT_NAMED 1901-10-08 18:00:00 TS 18.4000 -59.6000 50 hurdat_atl main 633 582 O_____________ hurdat_atl AL111901 18.4000 -59.6000 TS 50 0 14 314
1901278N12309 1901 35 NA NA NOT_NAMED 1901-10-08 21:00:00 TS 18.9074 -60.1225 main 582 535 P_____________ AL111901 18.9074 -60.1225 TS 47 0 14 317
1901278N12309 1901 35 NA NA NOT_NAMED 1901-10-09 00:00:00 TS 19.4000 -60.6000 45 hurdat_atl main 537 508 O_____________ hurdat_atl AL111901 19.4000 -60.6000 TS 45 0 12 317
1901278N12309 1901 35 NA NA NOT_NAMED 1901-10-09 03:00:00 TS 19.8147 -61.0080 main 508 484 P_____________ AL111901 19.8147 -61.0080 TS 42 0 11 317
1901278N12309 1901 35 NA NA NOT_NAMED 1901-10-09 06:00:00 TS 20.2000 -61.4000 40 hurdat_atl main 484 468 O_____________ hurdat_atl AL111901 20.2000 -61.4000 TS 40 0 11 316
1901278N12309 1901 35 NA NA NOT_NAMED 1901-10-09 09:00:00 TS 20.5996 -61.8055 main 468 451 P_____________ AL111901 20.5996 -61.8055 TS 37 0 12 314
1901278N12309 1901 35 NA NA NOT_NAMED 1901-10-09 12:00:00 TS 21.0000 -62.3000 35 hurdat_atl main 451 430 O_____________ hurdat_atl AL111901 21.0000 -62.3000 TS 35 0 13 307
1901278N12309 1901 35 NA NA NOT_NAMED 1901-10-09 15:00:00 TS 21.3922 -62.9330 main 438 424 P_____________ AL111901 21.3922 -62.9330 TS 35 0 15 302
1901278N12309 1901 35 NA NA NOT_NAMED 1901-10-09 18:00:00 TS 21.8000 -63.7000 35 hurdat_atl main 428 424 O_____________ hurdat_atl AL111901 21.8000 -63.7000 TS 35 0 17 298
1901278N12309 1901 35 NA NA NOT_NAMED 1901-10-09 21:00:00 TS 22.2128 -64.5930 main 437 437 P_____________ AL111901 22.2128 -64.5930 TS 35 0 19 298
1901278N12309 1901 35 NA NA NOT_NAMED 1901-10-10 00:00:00 TS 22.7000 -65.5000 35 hurdat_atl main 481 481 O_____________ hurdat_atl AL111901 22.7000 -65.5000 TS 35 0 19 305
1901278N12309 1901 35 NA NA NOT_NAMED 1901-10-10 03:00:00 TS 23.2968 -66.2734 main 544 544 P_____________ AL111901 23.2968 -66.2734 TS 35 0 19 313
1901278N12309 1901 35 NA NA NOT_NAMED 1901-10-10 06:00:00 TS 24.0000 -67.0000 35 hurdat_atl main 576 576 O_____________ hurdat_atl AL111901 24.0000 -67.0000 TS 35 0 20 316
1901278N12309 1901 35 NA NA NOT_NAMED 1901-10-10 09:00:00 TS 24.7405 -67.8244 main 613 613 P_____________ AL111901 24.7405 -67.8244 TS 35 0 21 320
1901278N12309 1901 35 NA NA NOT_NAMED 1901-10-10 12:00:00 TS 25.6000 -68.5000 35 hurdat_atl main 672 672 O_____________ hurdat_atl AL111901 25.6000 -68.5000 TS 35 0 21 332
1901278N12309 1901 35 NA NA NOT_NAMED 1901-10-10 15:00:00 TS 26.5744 -68.8995 main 733 733 P_____________ AL111901 26.5744 -68.8995 TS 35 0 22 348
1901278N12309 1901 35 NA NA NOT_NAMED 1901-10-10 18:00:00 TS 27.7000 -69.0000 35 hurdat_atl main 831 831 O_____________ hurdat_atl AL111901 27.7000 -69.0000 TS 35 0 24 0
1901278N12309 1901 35 NA NA NOT_NAMED 1901-10-10 21:00:00 TS 28.9546 -68.8843 main 957 897 P_____________ AL111901 28.9546 -68.8843 TS 37 0 26 10
1901278N12309 1901 35 NA NA NOT_NAMED 1901-10-11 00:00:00 ET 30.3000 -68.5000 40 hurdat_atl main 891 834 O_____________ hurdat_atl AL111901 30.3000 -68.5000 EX 40 -4 29 16
1901278N12309 1901 35 NA NA NOT_NAMED 1901-10-11 03:00:00 ET 31.6941 -67.9768 main 828 810 P_____________ AL111901 31.6941 -67.9768 EX 40 -4 29 22
1901278N12309 1901 35 NA NA NOT_NAMED 1901-10-11 06:00:00 ET 33.0000 -67.2000 40 hurdat_atl main 821 821 O_____________ hurdat_atl AL111901 33.0000 -67.2000 EX 40 -4 29 33
1901278N12309 1901 35 NA NA NOT_NAMED 1901-10-11 09:00:00 ET 34.1446 -66.0962 main 875 858 P_____________ AL111901 34.1446 -66.0962 EX 42 -4 27 42
1901278N12309 1901 35 NA NA NOT_NAMED 1901-10-11 12:00:00 ET 35.0000 -65.0000 45 hurdat_atl main 863 843 O_____________ hurdat_atl AL111901 35.0000 -65.0000 EX 45 -4 20 47
1901278N12309 1901 35 NA NA NOT_NAMED 1901-10-11 15:00:00 ET 35.4955 -64.3279 main 848 840 P_____________ AL111901 35.4955 -64.3279 EX 45 -4 13 51
1901278N12309 1901 35 NA NA NOT_NAMED 1901-10-11 18:00:00 ET 35.8000 -63.8000 45 hurdat_atl main 847 840 O_____________ hurdat_atl AL111901 35.8000 -63.8000 EX 45 -4 12 56
1901278N12309 1901 35 NA NA NOT_NAMED 1901-10-11 21:00:00 ET 36.1499 -63.1493 main 844 811 P_____________ AL111901 36.1499 -63.1493 EX 45 -4 13 56
1901278N12309 1901 35 NA NA NOT_NAMED 1901-10-12 00:00:00 ET 36.5000 -62.5000 45 hurdat_atl main 814 788 O_____________ hurdat_atl AL111901 36.5000 -62.5000 EX 45 -4 12 54
1901278N12309 1901 35 NA NA NOT_NAMED 1901-10-12 03:00:00 ET 36.8920 -61.8993 main 788 764 P_____________ AL111901 36.8920 -61.8993 EX 42 -4 12 50
1901278N12309 1901 35 NA NA NOT_NAMED 1901-10-12 06:00:00 ET 37.3000 -61.3000 40 hurdat_atl main 767 752 O_____________ hurdat_atl AL111901 37.3000 -61.3000 EX 40 -4 13 52
1901278N12309 1901 35 NA NA NOT_NAMED 1901-10-12 09:00:00 ET 37.6773 -60.6563 main 752 746 P_____________ AL111901 37.6773 -60.6563 EX 37 -4 13 52
1901278N12309 1901 35 NA NA NOT_NAMED 1901-10-12 12:00:00 ET 38.1000 -60.0000 35 hurdat_atl main 747 731 O_____________ hurdat_atl AL111901 38.1000 -60.0000 EX 35 -4 14 46
1901278N12309 1901 35 NA NA NOT_NAMED 1901-10-12 15:00:00 ET 38.6341 -59.3791 main 732 695 P_____________ AL111901 38.6341 -59.3791 EX 35 -4 15 43
1901278N12309 1901 35 NA NA NOT_NAMED 1901-10-12 18:00:00 ET 39.2000 -58.7000 35 hurdat_atl main 695 661 O_____________ hurdat_atl AL111901 39.2000 -58.7000 EX 35 -4 16 47
1901278N12309 1901 35 NA NA NOT_NAMED 1901-10-12 21:00:00 ET 39.7154 -57.8574 main 665 648 P_____________ AL111901 39.7154 -57.8574 EX 35 -4 16 53
1901278N12309 1901 35 NA NA NOT_NAMED 1901-10-13 00:00:00 ET 40.2000 -57.0000 35 hurdat_atl main 648 637 O_____________ hurdat_atl AL111901 40.2000 -57.0000 EX 35 -4 15 52
1901278N12309 1901 35 NA NA NOT_NAMED 1901-10-13 03:00:00 ET 40.6565 -56.2832 main 633 627 P_____________ AL111901 40.6565 -56.2832 EX 35 -4 14 50
1901278N12309 1901 35 NA NA NOT_NAMED 1901-10-13 06:00:00 ET 41.1000 -55.6000 35 hurdat_atl main 631 577 O_____________ hurdat_atl AL111901 41.1000 -55.6000 EX 35 -4 13 49
1901278N12309 1901 35 NA NA NOT_NAMED 1901-10-13 09:00:00 ET 41.5404 -54.9295 main 576 513 P_____________ AL111901 41.5404 -54.9295 EX 35 -4 14 51
1901278N12309 1901 35 NA NA NOT_NAMED 1901-10-13 12:00:00 ET 42.0000 -54.1000 35 hurdat_atl main 512 455 O_____________ hurdat_atl AL111901 42.0000 -54.1000 EX 35 -4 17 57
1901278N12309 1901 35 NA NA NOT_NAMED 1901-10-13 15:00:00 ET 42.4989 -52.9766 main 455 417 P_____________ AL111901 42.4989 -52.9766 EX 35 -4 21 62
1901278N12309 1901 35 NA NA NOT_NAMED 1901-10-13 18:00:00 ET 43.0000 -51.6000 35 hurdat_atl main 419 412 O_____________ hurdat_atl AL111901 43.0000 -51.6000 EX 35 -4 23 66
1901278N12309 1901 35 NA NA NOT_NAMED 1901-10-13 21:00:00 ET 43.4472 -50.1083 main 430 425 P_____________ AL111901 43.4472 -50.1083 EX 35 -4 25 69
1901278N12309 1901 35 NA NA NOT_NAMED 1901-10-14 00:00:00 ET 43.9000 -48.4000 35 hurdat_atl main 479 479 O_____________ hurdat_atl AL111901 43.9000 -48.4000 EX 35 -4 28 70
1901278N12309 1901 35 NA NA NOT_NAMED 1901-10-14 03:00:00 ET 44.3979 -46.4884 main 569 569 P_____________ AL111901 44.3979 -46.4884 EX 35 -4 30 71
1901278N12309 1901 35 NA NA NOT_NAMED 1901-10-14 06:00:00 ET 44.9000 -44.4000 35 hurdat_atl main 691 691 O_____________ hurdat_atl AL111901 44.9000 -44.4000 EX 35 -4 32 72
1901278N12309 1901 35 NA NA NOT_NAMED 1901-10-14 09:00:00 ET 45.3705 -42.2263 main 826 826 P_____________ AL111901 45.3705 -42.2263 EX 35 -4 32 74
1901278N12309 1901 35 NA NA NOT_NAMED 1901-10-14 12:00:00 ET 45.8000 -40.0000 35 hurdat_atl main 974 O_____________ hurdat_atl AL111901 45.8000 -40.0000 EX 35 -4 32 75

About IBTrACS Database

This database is a web-friendly format of International Best Track Archive for Climate Stewardship (IBTrACS), a global best track data archive curated by NOAA dating back to 1842.

Updated: 2021-10-21